sensor_id;sensor_type;location;lat;lon;timestamp;pressure;altitude;pressure_sealevel;temperature;humidity
58775;BME280;44545;47.480;19.024;2023-09-07T03:22:24;100823.84;;;15.04;100.00
58775;BME280;44545;47.480;19.024;2023-09-07T03:25:27;100828.50;;;15.11;100.00
58775;BME280;44545;47.480;19.024;2023-09-07T03:28:30;100826.22;;;15.19;100.00
58775;BME280;44545;47.480;19.024;2023-09-07T03:31:33;100821.59;;;15.13;100.00
58775;BME280;44545;47.480;19.024;2023-09-07T03:34:35;100818.16;;;15.14;100.00
58775;BME280;44545;47.480;19.024;2023-09-07T03:37:38;100828.06;;;15.22;100.00
58775;BME280;44545;47.480;19.024;2023-09-07T03:40:40;100830.19;;;15.09;100.00
58775;BME280;44545;47.480;19.024;2023-09-07T03:43:43;100837.66;;;15.00;100.00
58775;BME280;44545;47.480;19.024;2023-09-07T03:46:45;100828.19;;;15.04;100.00
58775;BME280;44545;47.480;19.024;2023-09-07T03:49:48;100830.03;;;15.06;100.00
58775;BME280;44545;47.480;19.024;2023-09-07T03:52:50;100825.97;;;15.13;100.00
58775;BME280;44545;47.480;19.024;2023-09-07T03:55:53;100830.66;;;15.20;100.00
58775;BME280;44545;47.480;19.024;2023-09-07T03:58:55;100837.56;;;15.18;100.00
58775;BME280;44545;47.480;19.024;2023-09-07T04:01:58;100839.34;;;15.19;100.00
58775;BME280;44545;47.480;19.024;2023-09-07T04:05:01;100837.25;;;15.10;100.00
58775;BME280;44545;47.480;19.024;2023-09-07T04:08:09;100833.00;;;15.14;100.00
58775;BME280;44545;47.480;19.024;2023-09-07T04:11:12;100840.00;;;15.13;100.00
58775;BME280;44545;47.480;19.024;2023-09-07T04:14:15;100845.97;;;15.09;100.00
58775;BME280;44545;47.480;19.024;2023-09-07T04:17:18;100840.87;;;15.14;100.00
58775;BME280;44545;47.480;19.024;2023-09-07T04:20:20;100848.00;;;15.16;100.00
58775;BME280;44545;47.480;19.024;2023-09-07T04:23:23;100845.62;;;15.02;100.00
58775;BME280;44545;47.480;19.024;2023-09-07T04:26:25;100845.88;;;15.08;100.00
58775;BME280;44545;47.480;19.024;2023-09-07T04:29:28;100845.81;;;15.06;100.00
58775;BME280;44545;47.480;19.024;2023-09-07T04:32:32;100846.28;;;15.17;100.00
58775;BME280;44545;47.480;19.024;2023-09-07T04:35:34;100847.22;;;15.19;100.00
58775;BME280;44545;47.480;19.024;2023-09-07T04:38:37;100847.63;;;15.28;100.00
58775;BME280;44545;47.480;19.024;2023-09-07T04:41:42;100852.34;;;15.16;100.00
58775;BME280;44545;47.480;19.024;2023-09-07T04:44:46;100851.97;;;15.07;100.00
58775;BME280;44545;47.480;19.024;2023-09-07T04:47:49;100853.13;;;15.13;100.00
58775;BME280;44545;47.480;19.024;2023-09-07T04:51:03;100850.81;;;15.21;100.00
58775;BME280;44545;47.480;19.024;2023-09-07T04:54:06;100844.59;;;15.19;100.00
58775;BME280;44545;47.480;19.024;2023-09-07T04:57:08;100858.44;;;15.34;100.00
58775;BME280;44545;47.480;19.024;2023-09-07T05:00:11;100848.41;;;15.47;100.00
58775;BME280;44545;47.480;19.024;2023-09-07T05:03:14;100847.28;;;15.40;100.00
58775;BME280;44545;47.480;19.024;2023-09-07T05:06:16;100851.09;;;15.48;100.00
58775;BME280;44545;47.480;19.024;2023-09-07T05:09:19;100858.34;;;15.54;100.00
58775;BME280;44545;47.480;19.024;2023-09-07T05:12:22;100854.44;;;15.65;100.00
58775;BME280;44545;47.480;19.024;2023-09-07T05:15:25;100855.47;;;15.90;100.00
58775;BME280;44545;47.480;19.024;2023-09-07T05:18:28;100862.09;;;16.02;100.00
58775;BME280;44545;47.480;19.024;2023-09-07T05:21:31;100850.22;;;16.35;100.00
58775;BME280;44545;47.480;19.024;2023-09-07T05:24:37;100859.41;;;16.68;100.00
58775;BME280;44545;47.480;19.024;2023-09-07T05:27:40;100861.78;;;16.85;100.00
58775;BME280;44545;47.480;19.024;2023-09-07T05:30:43;100868.50;;;17.26;100.00
58775;BME280;44545;47.480;19.024;2023-09-07T05:33:45;100866.69;;;18.02;98.44
58775;BME280;44545;47.480;19.024;2023-09-07T05:36:48;100860.97;;;19.06;88.03
58775;BME280;44545;47.480;19.024;2023-09-07T05:39:50;100859.59;;;20.26;80.01
58775;BME280;44545;47.480;19.024;2023-09-07T05:42:53;100859.50;;;21.05;75.65
58775;BME280;44545;47.480;19.024;2023-09-07T05:45:56;100856.66;;;21.95;71.60
58775;BME280;44545;47.480;19.024;2023-09-07T05:48:58;100863.78;;;22.58;67.90
58775;BME280;44545;47.480;19.024;2023-09-07T05:52:00;100864.47;;;23.13;63.94
58775;BME280;44545;47.480;19.024;2023-09-07T05:55:04;100854.75;;;23.15;65.99
58775;BME280;44545;47.480;19.024;2023-09-07T05:58:08;100873.12;;;23.81;61.73
58775;BME280;44545;47.480;19.024;2023-09-07T06:01:11;100866.22;;;24.12;60.17
58775;BME280;44545;47.480;19.024;2023-09-07T06:04:14;100863.56;;;24.12;60.45
58775;BME280;44545;47.480;19.024;2023-09-07T06:07:16;100865.38;;;24.16;61.04
58775;BME280;44545;47.480;19.024;2023-09-07T06:10:19;100869.66;;;23.91;61.21
58775;BME280;44545;47.480;19.024;2023-09-07T06:13:23;100870.50;;;23.86;62.65
58775;BME280;44545;47.480;19.024;2023-09-07T06:16:26;100885.72;;;23.10;62.67
58775;BME280;44545;47.480;19.024;2023-09-07T06:19:28;100899.69;;;22.94;62.11
58775;BME280;44545;47.480;19.024;2023-09-07T06:22:30;100875.53;;;22.76;66.29
58775;BME280;44545;47.480;19.024;2023-09-07T06:25:33;100889.84;;;22.87;63.99
58775;BME280;44545;47.480;19.024;2023-09-07T06:28:35;100887.41;;;23.04;61.52
58775;BME280;44545;47.480;19.024;2023-09-07T06:31:38;100881.69;;;22.73;61.89
58775;BME280;44545;47.480;19.024;2023-09-07T06:34:41;100883.38;;;22.65;59.37
58775;BME280;44545;47.480;19.024;2023-09-07T06:37:43;100880.69;;;22.63;62.23
58775;BME280;44545;47.480;19.024;2023-09-07T06:40:49;100888.16;;;22.92;61.10
58775;BME280;44545;47.480;19.024;2023-09-07T06:43:52;100906.06;;;23.05;59.14
58775;BME280;44545;47.480;19.024;2023-09-07T06:46:55;100893.84;;;22.51;62.28
58775;BME280;44545;47.480;19.024;2023-09-07T06:49:58;100892.41;;;22.81;59.66
58775;BME280;44545;47.480;19.024;2023-09-07T06:53:02;100898.66;;;22.83;59.43
58775;BME280;44545;47.480;19.024;2023-09-07T06:56:05;100894.44;;;22.99;60.42
58775;BME280;44545;47.480;19.024;2023-09-07T06:59:08;100897.34;;;23.22;59.09
58775;BME280;44545;47.480;19.024;2023-09-07T07:02:11;100900.72;;;23.04;58.94
58775;BME280;44545;47.480;19.024;2023-09-07T07:05:13;100915.00;;;23.13;58.05
58775;BME280;44545;47.480;19.024;2023-09-07T07:08:16;100903.59;;;23.22;60.12
58775;BME280;44545;47.480;19.024;2023-09-07T07:11:19;100908.44;;;22.85;61.14
58775;BME280;44545;47.480;19.024;2023-09-07T07:14:22;100913.28;;;23.15;60.29
58775;BME280;44545;47.480;19.024;2023-09-07T07:17:24;100911.72;;;23.36;59.96
58775;BME280;44545;47.480;19.024;2023-09-07T07:20:27;100915.53;;;23.63;59.50
58775;BME280;44545;47.480;19.024;2023-09-07T07:23:30;100912.66;;;23.41;59.17
58775;BME280;44545;47.480;19.024;2023-09-07T07:26:33;100915.34;;;23.44;59.96
58775;BME280;44545;47.480;19.024;2023-09-07T07:29:36;100907.16;;;23.23;59.77
58775;BME280;44545;47.480;19.024;2023-09-07T07:32:39;100914.59;;;23.57;60.19
58775;BME280;44545;47.480;19.024;2023-09-07T07:35:42;100928.13;;;23.76;59.69
58775;BME280;44545;47.480;19.024;2023-09-07T07:38:44;100918.25;;;23.69;59.67
58775;BME280;44545;47.480;19.024;2023-09-07T07:41:48;100913.06;;;23.78;58.69
58775;BME280;44545;47.480;19.024;2023-09-07T07:44:52;100907.78;;;23.86;61.06
58775;BME280;44545;47.480;19.024;2023-09-07T07:47:54;100902.75;;;23.25;59.74
58775;BME280;44545;47.480;19.024;2023-09-07T07:50:57;100911.63;;;23.28;60.71
58775;BME280;44545;47.480;19.024;2023-09-07T07:54:00;100915.47;;;23.56;59.75
58775;BME280;44545;47.480;19.024;2023-09-07T07:57:02;100914.69;;;23.68;60.81
58775;BME280;44545;47.480;19.024;2023-09-07T08:00:06;100920.78;;;23.56;61.04
58775;BME280;44545;47.480;19.024;2023-09-07T08:03:15;100915.50;;;23.59;59.80
58775;BME280;44545;47.480;19.024;2023-09-07T08:06:18;100912.94;;;23.70;61.17
58775;BME280;44545;47.480;19.024;2023-09-07T08:09:21;100914.69;;;23.70;60.66
58775;BME280;44545;47.480;19.024;2023-09-07T08:12:24;100906.09;;;24.00;59.90
58775;BME280;44545;47.480;19.024;2023-09-07T08:15:27;100914.13;;;24.01;59.68
58775;BME280;44545;47.480;19.024;2023-09-07T08:18:33;100905.47;;;24.35;59.94
58775;BME280;44545;47.480;19.024;2023-09-07T08:21:37;100900.88;;;24.15;59.41
58775;BME280;44545;47.480;19.024;2023-09-07T08:24:40;100909.84;;;24.23;59.51
58775;BME280;44545;47.480;19.024;2023-09-07T08:27:44;100898.97;;;23.93;60.65
58775;BME280;44545;47.480;19.024;2023-09-07T08:30:50;100893.91;;;24.33;61.39
58775;BME280;44545;47.480;19.024;2023-09-07T08:33:58;100894.03;;;24.53;59.47
58775;BME280;44545;47.480;19.024;2023-09-07T08:37:01;100896.84;;;24.77;58.17
58775;BME280;44545;47.480;19.024;2023-09-07T08:40:03;100900.41;;;24.79;58.11
58775;BME280;44545;47.480;19.024;2023-09-07T08:43:08;100892.47;;;24.98;58.39
58775;BME280;44545;47.480;19.024;2023-09-07T08:46:15;100882.72;;;25.07;58.45
58775;BME280;44545;47.480;19.024;2023-09-07T08:49:20;100880.91;;;24.96;57.18
58775;BME280;44545;47.480;19.024;2023-09-07T08:52:22;100888.09;;;25.21;56.88
58775;BME280;44545;47.480;19.024;2023-09-07T08:55:25;100900.59;;;25.32;53.42
58775;BME280;44545;47.480;19.024;2023-09-07T08:58:27;100888.16;;;25.40;54.42
58775;BME280;44545;47.480;19.024;2023-09-07T09:01:31;100878.38;;;25.65;55.22
58775;BME280;44545;47.480;19.024;2023-09-07T09:04:33;100889.97;;;26.10;54.15
58775;BME280;44545;47.480;19.024;2023-09-07T09:07:37;100898.84;;;26.40;51.63
58775;BME280;44545;47.480;19.024;2023-09-07T09:10:39;100870.41;;;26.03;52.64
58775;BME280;44545;47.480;19.024;2023-09-07T09:13:43;100897.94;;;26.37;50.13
58775;BME280;44545;47.480;19.024;2023-09-07T09:16:52;100878.31;;;26.45;50.23
58775;BME280;44545;47.480;19.024;2023-09-07T09:19:55;100853.31;;;26.63;53.29
58775;BME280;44545;47.480;19.024;2023-09-07T09:22:58;100909.50;;;26.63;47.85
58775;BME280;44545;47.480;19.024;2023-09-07T09:26:02;100903.28;;;26.59;48.54
58775;BME280;44545;47.480;19.024;2023-09-07T09:29:05;100871.19;;;26.47;49.68
58775;BME280;44545;47.480;19.024;2023-09-07T09:32:08;100926.34;;;26.88;45.94
58775;BME280;44545;47.480;19.024;2023-09-07T09:35:10;100892.56;;;26.51;46.98
58775;BME280;44545;47.480;19.024;2023-09-07T09:38:13;100962.13;;;26.56;44.18
58775;BME280;44545;47.480;19.024;2023-09-07T09:41:16;100922.75;;;26.98;44.52
58775;BME280;44545;47.480;19.024;2023-09-07T09:44:21;100956.28;;;27.71;43.00
58775;BME280;44545;47.480;19.024;2023-09-07T09:47:27;100963.41;;;27.72;41.64
58775;BME280;44545;47.480;19.024;2023-09-07T09:50:30;100965.06;;;27.96;41.25
58775;BME280;44545;47.480;19.024;2023-09-07T09:53:32;100953.31;;;28.11;41.01
58775;BME280;44545;47.480;19.024;2023-09-07T09:56:35;100987.81;;;28.52;39.18
58775;BME280;44545;47.480;19.024;2023-09-07T09:59:37;100944.00;;;28.52;40.74
58775;BME280;44545;47.480;19.024;2023-09-07T10:02:40;101014.09;;;29.03;37.22
58775;BME280;44545;47.480;19.024;2023-09-07T10:05:46;100983.72;;;29.71;38.23
58775;BME280;44545;47.480;19.024;2023-09-07T10:08:59;101044.63;;;30.34;35.67
58775;BME280;44545;47.480;19.024;2023-09-07T10:12:02;101073.94;;;31.02;34.00
58775;BME280;44545;47.480;19.024;2023-09-07T10:15:19;101105.88;;;32.09;32.38
58775;BME280;44545;47.480;19.024;2023-09-07T10:18:38;101082.38;;;33.20;32.61
58775;BME280;44545;47.480;19.024;2023-09-07T10:21:41;101164.75;;;34.60;29.75
58775;BME280;44545;47.480;19.024;2023-09-07T10:24:43;101203.00;;;34.77;27.77
58775;BME280;44545;47.480;19.024;2023-09-07T10:27:48;101205.47;;;35.36;27.71
58775;BME280;44545;47.480;19.024;2023-09-07T10:31:04;101265.69;;;36.69;25.19
58775;BME280;44545;47.480;19.024;2023-09-07T10:34:09;101311.84;;;36.47;24.07
58775;BME280;44545;47.480;19.024;2023-09-07T10:37:14;101313.22;;;37.04;23.09
58775;BME280;44545;47.480;19.024;2023-09-07T10:40:21;101287.75;;;37.27;23.16
58775;BME280;44545;47.480;19.024;2023-09-07T10:43:33;101344.38;;;38.62;21.66
58775;BME280;44545;47.480;19.024;2023-09-07T10:46:37;101432.44;;;41.44;18.78
58775;BME280;44545;47.480;19.024;2023-09-07T10:49:40;101519.84;;;43.43;16.39
58775;BME280;44545;47.480;19.024;2023-09-07T10:52:43;101575.22;;;46.45;14.39
58775;BME280;44545;47.480;19.024;2023-09-07T10:55:45;101618.53;;;47.70;13.43
58775;BME280;44545;47.480;19.024;2023-09-07T10:58:48;101622.53;;;47.78;12.34
58775;BME280;44545;47.480;19.024;2023-09-07T11:01:53;101629.09;;;49.06;11.68
58775;BME280;44545;47.480;19.024;2023-09-07T11:04:57;101643.37;;;50.32;11.09
58775;BME280;44545;47.480;19.024;2023-09-07T11:08:00;101711.50;;;51.89;9.37
58775;BME280;44545;47.480;19.024;2023-09-07T11:11:03;101704.28;;;52.95;8.78
58775;BME280;44545;47.480;19.024;2023-09-07T11:14:06;101726.44;;;53.83;8.17
58775;BME280;44545;47.480;19.024;2023-09-07T11:17:08;101653.53;;;52.30;9.24
58775;BME280;44545;47.480;19.024;2023-09-07T11:20:11;101601.75;;;51.18;9.99
58775;BME280;44545;47.480;19.024;2023-09-07T11:23:13;101592.13;;;51.40;9.87
58775;BME280;44545;47.480;19.024;2023-09-07T11:26:16;101576.00;;;51.16;10.30
58775;BME280;44545;47.480;19.024;2023-09-07T11:29:19;101580.22;;;49.66;10.14
58775;BME280;44545;47.480;19.024;2023-09-07T11:32:23;101532.37;;;47.97;11.09
58775;BME280;44545;47.480;19.024;2023-09-07T11:35:25;101453.94;;;46.89;12.40
58775;BME280;44545;47.480;19.024;2023-09-07T11:38:35;101381.00;;;45.18;14.02
58775;BME280;44545;47.480;19.024;2023-09-07T11:41:41;101286.19;;;41.18;16.14
58775;BME280;44545;47.480;19.024;2023-09-07T11:44:44;101147.25;;;37.46;20.00
58775;BME280;44545;47.480;19.024;2023-09-07T11:47:47;101058.13;;;34.87;22.11
58775;BME280;44545;47.480;19.024;2023-09-07T11:50:49;100959.41;;;33.63;24.63
58775;BME280;44545;47.480;19.024;2023-09-07T11:53:52;100945.53;;;32.85;24.65
58775;BME280;44545;47.480;19.024;2023-09-07T11:56:54;100847.06;;;32.00;27.25
58775;BME280;44545;47.480;19.024;2023-09-07T11:59:56;100869.47;;;31.28;27.27
58775;BME280;44545;47.480;19.024;2023-09-07T12:03:00;100844.22;;;30.95;28.06
58775;BME280;44545;47.480;19.024;2023-09-07T12:06:03;100810.94;;;30.98;29.75
58775;BME280;44545;47.480;19.024;2023-09-07T12:09:06;100844.75;;;30.22;28.69
58775;BME280;44545;47.480;19.024;2023-09-07T12:12:09;100823.59;;;30.51;29.44
58775;BME280;44545;47.480;19.024;2023-09-07T12:15:13;100829.75;;;30.56;29.61
58775;BME280;44545;47.480;19.024;2023-09-07T12:18:16;100846.75;;;30.13;28.95
58775;BME280;44545;47.480;19.024;2023-09-07T12:21:19;100850.44;;;30.09;28.52
58775;BME280;44545;47.480;19.024;2023-09-07T12:24:21;100836.19;;;29.51;29.43
58775;BME280;44545;47.480;19.024;2023-09-07T12:27:23;100822.25;;;29.80;29.36
58775;BME280;44545;47.480;19.024;2023-09-07T12:30:26;100801.19;;;29.54;30.75
58775;BME280;44545;47.480;19.024;2023-09-07T12:33:29;100810.19;;;29.51;30.35
58775;BME280;44545;47.480;19.024;2023-09-07T12:36:33;100818.72;;;29.78;29.84
58775;BME280;44545;47.480;19.024;2023-09-07T12:39:35;100758.78;;;29.71;32.03
58775;BME280;44545;47.480;19.024;2023-09-07T12:42:39;100819.69;;;29.74;30.41
58775;BME280;44545;47.480;19.024;2023-09-07T12:45:42;100808.47;;;29.98;30.76
58775;BME280;44545;47.480;19.024;2023-09-07T12:48:45;100740.66;;;29.33;32.63
58775;BME280;44545;47.480;19.024;2023-09-07T12:51:47;100794.06;;;28.92;31.12
58775;BME280;44545;47.480;19.024;2023-09-07T12:54:50;100762.75;;;28.93;31.94
58775;BME280;44545;47.480;19.024;2023-09-07T12:57:52;100769.06;;;28.89;31.95
58775;BME280;44545;47.480;19.024;2023-09-07T13:00:54;100794.75;;;29.08;31.22
58775;BME280;44545;47.480;19.024;2023-09-07T13:03:57;100750.03;;;29.06;32.32
58775;BME280;44545;47.480;19.024;2023-09-07T13:07:00;100800.16;;;29.04;31.11
58775;BME280;44545;47.480;19.024;2023-09-07T13:10:05;100776.19;;;28.91;32.10
58775;BME280;44545;47.480;19.024;2023-09-07T13:13:07;100758.78;;;29.19;32.27
58775;BME280;44545;47.480;19.024;2023-09-07T13:16:10;100739.25;;;29.09;33.30
58775;BME280;44545;47.480;19.024;2023-09-07T13:19:13;100737.56;;;29.00;32.77
58775;BME280;44545;47.480;19.024;2023-09-07T13:22:16;100709.62;;;29.13;34.07
58775;BME280;44545;47.480;19.024;2023-09-07T13:25:19;100731.44;;;28.92;33.22
58775;BME280;44545;47.480;19.024;2023-09-07T13:28:22;100805.88;;;28.81;31.45
58775;BME280;44545;47.480;19.024;2023-09-07T13:31:24;100827.50;;;28.71;30.62
58775;BME280;44545;47.480;19.024;2023-09-07T13:34:27;100765.00;;;28.60;32.43
58775;BME280;44545;47.480;19.024;2023-09-07T13:37:29;100679.19;;;28.57;34.89
58775;BME280;44545;47.480;19.024;2023-09-07T13:40:31;100745.50;;;28.49;33.46
58775;BME280;44545;47.480;19.024;2023-09-07T13:43:34;100816.19;;;28.46;31.29
58775;BME280;44545;47.480;19.024;2023-09-07T13:46:36;100806.34;;;28.41;31.24
58775;BME280;44545;47.480;19.024;2023-09-07T13:49:39;100823.66;;;28.15;31.06
58775;BME280;44545;47.480;19.024;2023-09-07T13:52:41;100802.94;;;28.28;31.14
58775;BME280;44545;47.480;19.024;2023-09-07T13:55:43;100804.75;;;28.27;31.00
58775;BME280;44545;47.480;19.024;2023-09-07T13:58:48;100777.91;;;28.29;31.83
58775;BME280;44545;47.480;19.024;2023-09-07T14:01:51;100752.84;;;28.31;32.64
58775;BME280;44545;47.480;19.024;2023-09-07T14:04:54;100735.06;;;28.24;32.87
58775;BME280;44545;47.480;19.024;2023-09-07T14:07:56;100727.00;;;28.23;32.98
58775;BME280;44545;47.480;19.024;2023-09-07T14:11:01;100674.50;;;28.05;34.74
58775;BME280;44545;47.480;19.024;2023-09-07T14:14:04;100702.16;;;28.10;33.97
58775;BME280;44545;47.480;19.024;2023-09-07T14:17:06;100669.19;;;28.03;35.36
58775;BME280;44545;47.480;19.024;2023-09-07T14:20:09;100701.22;;;28.13;34.09
58775;BME280;44545;47.480;19.024;2023-09-07T14:23:12;100677.25;;;28.02;34.48
58775;BME280;44545;47.480;19.024;2023-09-07T14:26:14;100722.09;;;27.87;33.65
58775;BME280;44545;47.480;19.024;2023-09-07T14:29:18;100695.28;;;27.87;34.29
58775;BME280;44545;47.480;19.024;2023-09-07T14:32:20;100732.84;;;27.84;32.82
58775;BME280;44545;47.480;19.024;2023-09-07T14:35:23;100697.13;;;27.84;34.22
58775;BME280;44545;47.480;19.024;2023-09-07T14:38:25;100672.19;;;27.76;34.80
58775;BME280;44545;47.480;19.024;2023-09-07T14:41:29;100732.97;;;27.71;32.88
58775;BME280;44545;47.480;19.024;2023-09-07T14:44:32;100735.66;;;27.69;32.89
58775;BME280;44545;47.480;19.024;2023-09-07T14:47:35;100677.75;;;27.54;34.88
58775;BME280;44545;47.480;19.024;2023-09-07T14:50:37;100716.25;;;27.45;33.50
58775;BME280;44545;47.480;19.024;2023-09-07T14:53:40;100713.59;;;27.45;33.31
58775;BME280;44545;47.480;19.024;2023-09-07T14:56:42;100702.00;;;27.43;33.37
58775;BME280;44545;47.480;19.024;2023-09-07T14:59:45;100652.97;;;27.34;35.11
58775;BME280;44545;47.480;19.024;2023-09-07T15:02:47;100668.22;;;27.30;34.73
58775;BME280;44545;47.480;19.024;2023-09-07T15:05:49;100693.25;;;27.25;34.23
58775;BME280;44545;47.480;19.024;2023-09-07T15:08:52;100740.53;;;27.24;32.68
58775;BME280;44545;47.480;19.024;2023-09-07T15:11:54;100644.22;;;27.15;35.33
58775;BME280;44545;47.480;19.024;2023-09-07T15:14:57;100752.28;;;27.05;32.82
58775;BME280;44545;47.480;19.024;2023-09-07T15:17:59;100748.84;;;26.86;32.74
